sensor_id;sensor_type;location;lat;lon;timestamp;pressure;altitude;pressure_sealevel;temperature;humidity
16016;BME280;8112;53.592;10.184;2024-03-07T00:02:52;102532.38;;;4.10;100.00
16016;BME280;8112;53.592;10.184;2024-03-07T00:07:54;102532.41;;;4.04;100.00
16016;BME280;8112;53.592;10.184;2024-03-07T00:12:56;102538.47;;;4.14;100.00
16016;BME280;8112;53.592;10.184;2024-03-07T00:17:59;102539.25;;;4.30;100.00
16016;BME280;8112;53.592;10.184;2024-03-07T00:23:02;102539.28;;;4.24;100.00
16016;BME280;8112;53.592;10.184;2024-03-07T00:28:04;102539.28;;;4.27;100.00
16016;BME280;8112;53.592;10.184;2024-03-07T00:33:08;102528.84;;;4.24;100.00
16016;BME280;8112;53.592;10.184;2024-03-07T00:38:10;102534.06;;;4.21;100.00
16016;BME280;8112;53.592;10.184;2024-03-07T00:43:12;102527.13;;;4.17;100.00
16016;BME280;8112;53.592;10.184;2024-03-07T00:48:15;102514.97;;;4.12;100.00
16016;BME280;8112;53.592;10.184;2024-03-07T00:53:17;102522.78;;;4.12;100.00
16016;BME280;8112;53.592;10.184;2024-03-07T00:58:19;102526.25;;;4.16;100.00
16016;BME280;8112;53.592;10.184;2024-03-07T01:03:22;102535.78;;;4.30;100.00
16016;BME280;8112;53.592;10.184;2024-03-07T01:08:24;102534.03;;;4.33;100.00
16016;BME280;8112;53.592;10.184;2024-03-07T01:13:26;102526.22;;;4.30;100.00
16016;BME280;8112;53.592;10.184;2024-03-07T01:18:29;102527.94;;;4.31;100.00
16016;BME280;8112;53.592;10.184;2024-03-07T01:23:33;102519.25;;;4.29;100.00
16016;BME280;8112;53.592;10.184;2024-03-07T01:28:35;102517.53;;;4.25;100.00
16016;BME280;8112;53.592;10.184;2024-03-07T01:33:38;102521.81;;;4.41;100.00
16016;BME280;8112;53.592;10.184;2024-03-07T01:38:40;102523.59;;;4.32;100.00
16016;BME280;8112;53.592;10.184;2024-03-07T01:43:41;102517.50;;;4.31;100.00
16016;BME280;8112;53.592;10.184;2024-03-07T01:48:45;102517.50;;;4.36;100.00
16016;BME280;8112;53.592;10.184;2024-03-07T01:53:47;102509.66;;;4.31;100.00
16016;BME280;8112;53.592;10.184;2024-03-07T01:58:49;102511.41;;;4.34;100.00
16016;BME280;8112;53.592;10.184;2024-03-07T02:03:53;102516.66;;;4.31;100.00
16016;BME280;8112;53.592;10.184;2024-03-07T02:08:55;102500.94;;;4.38;100.00
16016;BME280;8112;53.592;10.184;2024-03-07T02:13:59;102501.84;;;4.28;100.00
16016;BME280;8112;53.592;10.184;2024-03-07T02:19:03;102492.25;;;4.35;100.00
16016;BME280;8112;53.592;10.184;2024-03-07T02:24:06;102490.53;;;4.29;100.00
16016;BME280;8112;53.592;10.184;2024-03-07T02:29:09;102487.94;;;4.24;100.00
16016;BME280;8112;53.592;10.184;2024-03-07T02:34:11;102489.66;;;4.32;100.00
16016;BME280;8112;53.592;10.184;2024-03-07T02:39:14;102481.03;;;4.22;100.00
16016;BME280;8112;53.592;10.184;2024-03-07T02:44:17;102486.22;;;4.23;100.00
16016;BME280;8112;53.592;10.184;2024-03-07T02:49:18;102490.53;;;4.29;100.00
16016;BME280;8112;53.592;10.184;2024-03-07T02:54:22;102476.63;;;4.30;100.00
16016;BME280;8112;53.592;10.184;2024-03-07T02:59:24;102480.13;;;4.20;100.00
16016;BME280;8112;53.592;10.184;2024-03-07T03:04:26;102481.00;;;4.19;100.00
16016;BME280;8112;53.592;10.184;2024-03-07T03:09:31;102488.88;;;4.12;100.00
16016;BME280;8112;53.592;10.184;2024-03-07T03:14:34;102477.59;;;4.07;100.00
16016;BME280;8112;53.592;10.184;2024-03-07T03:19:35;102478.47;;;4.06;100.00
16016;BME280;8112;53.592;10.184;2024-03-07T03:24:38;102474.97;;;4.10;100.00
16016;BME280;8112;53.592;10.184;2024-03-07T03:29:41;102474.97;;;4.12;100.00
16016;BME280;8112;53.592;10.184;2024-03-07T03:34:43;102472.41;;;3.95;100.00
16016;BME280;8112;53.592;10.184;2024-03-07T03:39:46;102468.06;;;3.94;100.00
16016;BME280;8112;53.592;10.184;2024-03-07T03:44:48;102474.13;;;3.91;100.00
16016;BME280;8112;53.592;10.184;2024-03-07T03:49:50;102466.34;;;3.82;100.00
16016;BME280;8112;53.592;10.184;2024-03-07T03:54:53;102469.84;;;3.81;100.00
16016;BME280;8112;53.592;10.184;2024-03-07T03:59:54;102471.59;;;3.79;100.00
16016;BME280;8112;53.592;10.184;2024-03-07T04:04:56;102475.06;;;3.68;100.00
16016;BME280;8112;53.592;10.184;2024-03-07T04:10:01;102470.72;;;3.78;100.00
16016;BME280;8112;53.592;10.184;2024-03-07T04:15:04;102471.56;;;3.80;100.00
16016;BME280;8112;53.592;10.184;2024-03-07T04:20:08;102468.97;;;3.79;100.00
16016;BME280;8112;53.592;10.184;2024-03-07T04:25:12;102476.78;;;3.87;100.00
16016;BME280;8112;53.592;10.184;2024-03-07T04:30:14;102471.59;;;3.76;100.00
16016;BME280;8112;53.592;10.184;2024-03-07T04:35:17;102470.72;;;3.78;100.00
16016;BME280;8112;53.592;10.184;2024-03-07T04:40:20;102478.56;;;3.56;100.00
16016;BME280;8112;53.592;10.184;2024-03-07T04:45:22;102479.44;;;3.59;100.00
16016;BME280;8112;53.592;10.184;2024-03-07T04:50:23;102471.59;;;3.74;100.00
16016;BME280;8112;53.592;10.184;2024-03-07T04:55:30;102476.84;;;3.52;100.00
16016;BME280;8112;53.592;10.184;2024-03-07T05:00:32;102473.38;;;3.56;100.00
16016;BME280;8112;53.592;10.184;2024-03-07T05:05:34;102477.75;;;3.22;100.00
16016;BME280;8112;53.592;10.184;2024-03-07T05:10:37;102481.22;;;3.11;100.00
16016;BME280;8112;53.592;10.184;2024-03-07T05:15:39;102480.34;;;2.98;100.00
16016;BME280;8112;53.592;10.184;2024-03-07T05:20:40;102483.75;;;2.73;100.00
16016;BME280;8112;53.592;10.184;2024-03-07T05:25:44;102488.06;;;2.60;100.00
16016;BME280;8112;53.592;10.184;2024-03-07T05:30:46;102488.94;;;2.57;100.00
16016;BME280;8112;53.592;10.184;2024-03-07T05:35:49;102491.50;;;2.54;100.00
16016;BME280;8112;53.592;10.184;2024-03-07T05:41:02;102492.44;;;2.68;100.00
16016;BME280;8112;53.592;10.184;2024-03-07T05:46:04;102501.16;;;2.83;100.00
16016;BME280;8112;53.592;10.184;2024-03-07T05:51:07;102506.34;;;2.83;100.00
16016;BME280;8112;53.592;10.184;2024-03-07T05:56:11;102503.72;;;2.81;100.00
16016;BME280;8112;53.592;10.184;2024-03-07T06:01:13;102503.72;;;2.70;100.00
16016;BME280;8112;53.592;10.184;2024-03-07T06:06:16;102494.16;;;2.73;100.00
16016;BME280;8112;53.592;10.184;2024-03-07T06:11:19;102504.63;;;2.79;100.00
16016;BME280;8112;53.592;10.184;2024-03-07T06:16:21;102511.53;;;2.75;100.00
16016;BME280;8112;53.592;10.184;2024-03-07T06:21:23;102512.44;;;2.99;100.00
16016;BME280;8112;53.592;10.184;2024-03-07T06:26:27;102514.22;;;3.17;100.00
16016;BME280;8112;53.592;10.184;2024-03-07T06:31:37;102515.06;;;3.01;100.00
16016;BME280;8112;53.592;10.184;2024-03-07T06:36:39;102523.75;;;3.03;100.00
16016;BME280;8112;53.592;10.184;2024-03-07T06:41:43;102520.28;;;2.97;100.00
16016;BME280;8112;53.592;10.184;2024-03-07T06:46:46;102529.81;;;2.88;100.00
16016;BME280;8112;53.592;10.184;2024-03-07T06:51:47;102528.06;;;2.96;100.00
16016;BME280;8112;53.592;10.184;2024-03-07T06:56:50;102533.31;;;2.94;100.00
16016;BME280;8112;53.592;10.184;2024-03-07T07:01:52;102530.69;;;3.07;100.00
16016;BME280;8112;53.592;10.184;2024-03-07T07:06:54;102528.09;;;3.08;100.00
16016;BME280;8112;53.592;10.184;2024-03-07T07:11:57;102530.72;;;3.25;100.00
16016;BME280;8112;53.592;10.184;2024-03-07T07:16:59;102541.13;;;3.11;100.00
16016;BME280;8112;53.592;10.184;2024-03-07T07:22:01;102545.44;;;2.95;100.00
16016;BME280;8112;53.592;10.184;2024-03-07T07:27:04;102541.13;;;3.16;100.00
16016;BME280;8112;53.592;10.184;2024-03-07T07:32:07;102540.25;;;3.12;100.00
16016;BME280;8112;53.592;10.184;2024-03-07T07:37:12;102543.75;;;3.25;100.00
16016;BME280;8112;53.592;10.184;2024-03-07T07:42:15;102535.91;;;3.11;100.00
16016;BME280;8112;53.592;10.184;2024-03-07T07:47:17;102539.41;;;3.32;100.00
16016;BME280;8112;53.592;10.184;2024-03-07T07:52:19;102538.53;;;3.60;100.00
16016;BME280;8112;53.592;10.184;2024-03-07T07:57:22;102535.06;;;3.53;100.00
16016;BME280;8112;53.592;10.184;2024-03-07T08:02:24;102537.66;;;3.45;100.00
16016;BME280;8112;53.592;10.184;2024-03-07T08:07:25;102528.97;;;3.76;100.00
16016;BME280;8112;53.592;10.184;2024-03-07T08:12:28;102533.31;;;3.70;100.00
16016;BME280;8112;53.592;10.184;2024-03-07T08:17:31;102531.59;;;3.52;100.00
16016;BME280;8112;53.592;10.184;2024-03-07T08:22:33;102525.38;;;4.16;100.00
16016;BME280;8112;53.592;10.184;2024-03-07T08:27:37;102525.41;;;4.09;100.00
16016;BME280;8112;53.592;10.184;2024-03-07T08:32:39;102524.44;;;4.37;100.00
16016;BME280;8112;53.592;10.184;2024-03-07T08:37:42;102521.84;;;4.35;100.00
16016;BME280;8112;53.592;10.184;2024-03-07T08:42:46;102515.66;;;4.55;100.00
16016;BME280;8112;53.592;10.184;2024-03-07T08:47:50;102524.47;;;4.32;100.00
16016;BME280;8112;53.592;10.184;2024-03-07T08:52:52;102513.19;;;4.27;100.00
16016;BME280;8112;53.592;10.184;2024-03-07T08:57:55;102512.38;;;4.05;100.00
16016;BME280;8112;53.592;10.184;2024-03-07T09:02:58;102516.75;;;3.96;100.00
16016;BME280;8112;53.592;10.184;2024-03-07T09:08:00;102516.75;;;4.04;100.00
16016;BME280;8112;53.592;10.184;2024-03-07T09:13:03;102514.06;;;4.23;100.00
16016;BME280;8112;53.592;10.184;2024-03-07T09:18:06;102515.81;;;4.10;100.00
16016;BME280;8112;53.592;10.184;2024-03-07T09:23:08;102526.22;;;4.25;100.00
16016;BME280;8112;53.592;10.184;2024-03-07T09:28:11;102509.66;;;4.40;100.00
16016;BME280;8112;53.592;10.184;2024-03-07T09:33:13;102503.59;;;4.34;100.00
16016;BME280;8112;53.592;10.184;2024-03-07T09:38:17;102509.63;;;4.44;100.00
16016;BME280;8112;53.592;10.184;2024-03-07T09:43:20;102507.91;;;4.36;100.00
16016;BME280;8112;53.592;10.184;2024-03-07T09:48:23;102505.28;;;4.38;100.00
16016;BME280;8112;53.592;10.184;2024-03-07T09:53:28;102505.97;;;4.73;100.00
16016;BME280;8112;53.592;10.184;2024-03-07T09:58:32;102500.88;;;4.51;100.00
16016;BME280;8112;53.592;10.184;2024-03-07T10:03:35;102505.97;;;4.77;100.00
16016;BME280;8112;53.592;10.184;2024-03-07T10:08:40;102497.34;;;4.64;100.00
16016;BME280;8112;53.592;10.184;2024-03-07T10:13:45;102494.44;;;5.08;100.00
16016;BME280;8112;53.592;10.184;2024-03-07T10:18:49;102493.09;;;5.62;100.00
16016;BME280;8112;53.592;10.184;2024-03-07T10:24:04;102491.72;;;6.14;100.00
16016;BME280;8112;53.592;10.184;2024-03-07T10:29:08;102488.72;;;6.44;100.00
16016;BME280;8112;53.592;10.184;2024-03-07T10:34:09;102489.34;;;6.61;100.00
16016;BME280;8112;53.592;10.184;2024-03-07T10:39:12;102487.50;;;7.26;100.00
16016;BME280;8112;53.592;10.184;2024-03-07T10:44:19;102477.84;;;7.28;100.00
16016;BME280;8112;53.592;10.184;2024-03-07T10:49:25;102473.25;;;6.86;100.00
16016;BME280;8112;53.592;10.184;2024-03-07T10:54:34;102473.16;;;6.33;100.00
16016;BME280;8112;53.592;10.184;2024-03-07T10:59:49;102475.47;;;6.54;100.00
16016;BME280;8112;53.592;10.184;2024-03-07T11:04:51;102474.88;;;6.95;100.00
16016;BME280;8112;53.592;10.184;2024-03-07T11:09:53;102466.66;;;7.17;100.00
16016;BME280;8112;53.592;10.184;2024-03-07T11:14:58;102467.53;;;7.17;100.00
16016;BME280;8112;53.592;10.184;2024-03-07T11:20:18;102457.63;;;7.32;100.00
16016;BME280;8112;53.592;10.184;2024-03-07T11:25:21;102455.00;;;7.32;100.00
16016;BME280;8112;53.592;10.184;2024-03-07T11:30:24;102461.38;;;7.18;100.00
16016;BME280;8112;53.592;10.184;2024-03-07T11:35:31;102447.06;;;7.38;100.00
16016;BME280;8112;53.592;10.184;2024-03-07T11:40:44;102442.66;;;7.40;100.00
16016;BME280;8112;53.592;10.184;2024-03-07T11:45:48;102445.28;;;7.40;100.00
16016;BME280;8112;53.592;10.184;2024-03-07T11:50:53;102441.31;;;7.16;100.00
16016;BME280;8112;53.592;10.184;2024-03-07T11:55:55;102435.47;;;6.99;100.00
16016;BME280;8112;53.592;10.184;2024-03-07T12:00:58;102429.97;;;7.15;100.00
16016;BME280;8112;53.592;10.184;2024-03-07T12:06:00;102425.59;;;7.63;100.00
16016;BME280;8112;53.592;10.184;2024-03-07T12:11:02;102415.66;;;7.35;100.00
16016;BME280;8112;53.592;10.184;2024-03-07T12:16:06;102420.13;;;7.28;100.00
16016;BME280;8112;53.592;10.184;2024-03-07T12:21:08;102404.16;;;7.40;100.00
16016;BME280;8112;53.592;10.184;2024-03-07T12:26:10;102395.88;;;7.62;100.00
16016;BME280;8112;53.592;10.184;2024-03-07T12:31:19;102385.75;;;7.88;100.00
16016;BME280;8112;53.592;10.184;2024-03-07T12:36:24;102396.63;;;8.11;100.00
16016;BME280;8112;53.592;10.184;2024-03-07T12:41:34;102387.03;;;8.09;100.00
16016;BME280;8112;53.592;10.184;2024-03-07T12:46:39;102381.41;;;8.26;100.00
16016;BME280;8112;53.592;10.184;2024-03-07T12:51:42;102376.16;;;8.26;100.00
16016;BME280;8112;53.592;10.184;2024-03-07T12:56:46;102373.00;;;8.10;100.00
16016;BME280;8112;53.592;10.184;2024-03-07T13:01:51;102371.34;;;8.06;100.00
16016;BME280;8112;53.592;10.184;2024-03-07T13:06:54;102362.88;;;8.32;100.00
16016;BME280;8112;53.592;10.184;2024-03-07T13:12:00;102351.69;;;8.63;100.00
16016;BME280;8112;53.592;10.184;2024-03-07T13:17:05;102344.09;;;8.11;100.00
16016;BME280;8112;53.592;10.184;2024-03-07T13:22:07;102344.34;;;8.38;100.00
16016;BME280;8112;53.592;10.184;2024-03-07T13:27:12;102340.59;;;10.10;100.00
16016;BME280;8112;53.592;10.184;2024-03-07T13:32:23;102330.69;;;9.90;100.00
16016;BME280;8112;53.592;10.184;2024-03-07T13:37:24;102333.69;;;11.37;100.00
16016;BME280;8112;53.592;10.184;2024-03-07T13:42:26;102328.88;;;11.25;100.00
16016;BME280;8112;53.592;10.184;2024-03-07T13:47:29;102321.50;;;10.59;100.00
16016;BME280;8112;53.592;10.184;2024-03-07T13:52:31;102325.66;;;9.20;100.00
16016;BME280;8112;53.592;10.184;2024-03-07T13:57:43;102316.03;;;10.09;100.00
16016;BME280;8112;53.592;10.184;2024-03-07T14:03:08;102310.88;;;10.60;100.00
16016;BME280;8112;53.592;10.184;2024-03-07T14:08:32;102296.53;;;11.44;100.00
16016;BME280;8112;53.592;10.184;2024-03-07T14:13:53;102288.56;;;13.17;100.00
16016;BME280;8112;53.592;10.184;2024-03-07T14:19:42;102283.69;;;13.67;100.00
16016;BME280;8112;53.592;10.184;2024-03-07T14:25:10;102271.78;;;14.13;100.00
16016;BME280;8112;53.592;10.184;2024-03-07T14:30:23;102267.91;;;14.73;100.00
16016;BME280;8112;53.592;10.184;2024-03-07T14:35:35;102263.47;;;14.38;100.00
16016;BME280;8112;53.592;10.184;2024-03-07T14:40:40;102263.06;;;14.10;100.00
16016;BME280;8112;53.592;10.184;2024-03-07T14:45:44;102254.88;;;14.50;100.00
16016;BME280;8112;53.592;10.184;2024-03-07T14:50:48;102244.59;;;13.90;100.00
16016;BME280;8112;53.592;10.184;2024-03-07T14:55:50;102244.03;;;13.65;100.00
16016;BME280;8112;53.592;10.184;2024-03-07T15:00:52;102243.16;;;13.65;100.00
16016;BME280;8112;53.592;10.184;2024-03-07T15:05:56;102232.59;;;13.82;100.00
16016;BME280;8112;53.592;10.184;2024-03-07T15:11:05;102228.56;;;12.78;100.00
16016;BME280;8112;53.592;10.184;2024-03-07T15:16:09;102233.31;;;10.67;100.00
16016;BME280;8112;53.592;10.184;2024-03-07T15:21:12;102228.69;;;9.66;100.00
16016;BME280;8112;53.592;10.184;2024-03-07T15:26:15;102225.25;;;9.36;100.00
16016;BME280;8112;53.592;10.184;2024-03-07T15:31:18;102215.75;;;9.00;100.00
16016;BME280;8112;53.592;10.184;2024-03-07T15:36:22;102221.91;;;8.67;100.00
16016;BME280;8112;53.592;10.184;2024-03-07T15:41:26;102212.25;;;8.33;100.00
16016;BME280;8112;53.592;10.184;2024-03-07T15:46:27;102220.16;;;7.97;100.00
16016;BME280;8112;53.592;10.184;2024-03-07T15:51:30;102205.28;;;7.60;100.00
16016;BME280;8112;53.592;10.184;2024-03-07T15:56:32;102205.94;;;7.68;100.00
16016;BME280;8112;53.592;10.184;2024-03-07T16:01:34;102204.34;;;7.62;100.00
16016;BME280;8112;53.592;10.184;2024-03-07T16:06:37;102200.38;;;7.44;100.00
16016;BME280;8112;53.592;10.184;2024-03-07T16:11:39;102197.16;;;7.30;100.00
16016;BME280;8112;53.592;10.184;2024-03-07T16:16:40;102199.91;;;7.25;100.00
16016;BME280;8112;53.592;10.184;2024-03-07T16:21:45;102195.09;;;7.05;100.00
16016;BME280;8112;53.592;10.184;2024-03-07T16:26:47;102191.72;;;6.98;100.00
16016;BME280;8112;53.592;10.184;2024-03-07T16:31:48;102187.44;;;6.95;100.00
16016;BME280;8112;53.592;10.184;2024-03-07T16:36:51;102180.75;;;6.79;100.00
16016;BME280;8112;53.592;10.184;2024-03-07T16:41:56;102188.94;;;6.62;100.00
16016;BME280;8112;53.592;10.184;2024-03-07T16:47:00;102190.16;;;6.42;100.00
16016;BME280;8112;53.592;10.184;2024-03-07T16:52:03;102188.63;;;6.30;100.00
16016;BME280;8112;53.592;10.184;2024-03-07T16:57:06;102182.81;;;6.14;100.00
16016;BME280;8112;53.592;10.184;2024-03-07T17:02:08;102193.63;;;5.89;100.00
16016;BME280;8112;53.592;10.184;2024-03-07T17:07:13;102192.97;;;5.76;100.00
16016;BME280;8112;53.592;10.184;2024-03-07T17:12:15;102202.72;;;5.65;100.00
16016;BME280;8112;53.592;10.184;2024-03-07T17:17:16;102205.53;;;5.52;100.00
16016;BME280;8112;53.592;10.184;2024-03-07T17:22:19;102196.13;;;5.39;100.00
16016;BME280;8112;53.592;10.184;2024-03-07T17:27:22;102204.16;;;5.25;100.00
16016;BME280;8112;53.592;10.184;2024-03-07T17:32:24;102206.91;;;5.11;100.00
16016;BME280;8112;53.592;10.184;2024-03-07T17:37:27;102206.25;;;4.96;100.00
16016;BME280;8112;53.592;10.184;2024-03-07T17:42:29;102214.97;;;4.92;100.00
16016;BME280;8112;53.592;10.184;2024-03-07T17:47:31;102216.97;;;4.68;100.00
16016;BME280;8112;53.592;10.184;2024-03-07T17:52:34;102214.44;;;4.61;100.00
16016;BME280;8112;53.592;10.184;2024-03-07T17:57:36;102217.16;;;4.50;100.00
16016;BME280;8112;53.592;10.184;2024-03-07T18:02:37;102205.94;;;4.38;100.00
16016;BME280;8112;53.592;10.184;2024-03-07T18:07:41;102206.91;;;4.31;100.00
16016;BME280;8112;53.592;10.184;2024-03-07T18:12:44;102211.28;;;4.29;100.00
16016;BME280;8112;53.592;10.184;2024-03-07T18:17:49;102208.78;;;4.13;100.00
16016;BME280;8112;53.592;10.184;2024-03-07T18:22:58;102205.38;;;4.04;100.00
16016;BME280;8112;53.592;10.184;2024-03-07T18:28:01;102208.06;;;3.97;100.00
16016;BME280;8112;53.592;10.184;2024-03-07T18:33:04;102217.59;;;3.97;100.00
16016;BME280;8112;53.592;10.184;2024-03-07T18:38:09;102214.19;;;3.92;100.00
16016;BME280;8112;53.592;10.184;2024-03-07T18:43:13;102215.13;;;3.80;100.00
16016;BME280;8112;53.592;10.184;2024-03-07T18:48:15;102203.88;;;3.73;100.00
16016;BME280;8112;53.592;10.184;2024-03-07T18:53:18;102205.66;;;3.68;100.00
16016;BME280;8112;53.592;10.184;2024-03-07T18:58:21;102207.44;;;3.61;100.00
16016;BME280;8112;53.592;10.184;2024-03-07T19:03:23;102197.91;;;3.51;100.00
16016;BME280;8112;53.592;10.184;2024-03-07T19:08:30;102197.13;;;3.38;100.00
16016;BME280;8112;53.592;10.184;2024-03-07T19:13:34;102191.03;;;3.40;100.00
16016;BME280;8112;53.592;10.184;2024-03-07T19:18:36;102195.38;;;3.35;100.00
16016;BME280;8112;53.592;10.184;2024-03-07T19:23:39;102191.06;;;3.34;100.00
16016;BME280;8112;53.592;10.184;2024-03-07T19:28:44;102188.53;;;3.22;100.00
16016;BME280;8112;53.592;10.184;2024-03-07T19:33:47;102207.63;;;3.19;100.00
16016;BME280;8112;53.592;10.184;2024-03-07T19:38:53;102192.00;;;3.18;100.00
16016;BME280;8112;53.592;10.184;2024-03-07T19:43:54;102194.63;;;3.16;100.00
16016;BME280;8112;53.592;10.184;2024-03-07T19:48:58;102186.84;;;3.04;100.00
16016;BME280;8112;53.592;10.184;2024-03-07T19:54:01;102198.16;;;3.04;100.00
16016;BME280;8112;53.592;10.184;2024-03-07T19:59:05;102204.22;;;3.02;100.00
16016;BME280;8112;53.592;10.184;2024-03-07T20:04:07;102203.34;;;3.01;100.00
16016;BME280;8112;53.592;10.184;2024-03-07T20:09:11;102201.66;;;2.98;100.00
16016;BME280;8112;53.592;10.184;2024-03-07T20:14:17;102206.91;;;2.80;100.00
16016;BME280;8112;53.592;10.184;2024-03-07T20:19:19;102200.81;;;2.87;100.00
16016;BME280;8112;53.592;10.184;2024-03-07T20:24:22;102201.66;;;2.91;100.00
16016;BME280;8112;53.592;10.184;2024-03-07T20:29:23;102199.94;;;2.88;100.00
16016;BME280;8112;53.592;10.184;2024-03-07T20:34:25;102206.00;;;2.87;100.00
16016;BME280;8112;53.592;10.184;2024-03-07T20:39:28;102198.22;;;2.81;100.00
16016;BME280;8112;53.592;10.184;2024-03-07T20:44:30;102198.25;;;2.70;100.00
16016;BME280;8112;53.592;10.184;2024-03-07T20:49:31;102193.03;;;2.78;100.00
16016;BME280;8112;53.592;10.184;2024-03-07T20:54:37;102200.88;;;2.75;100.00
16016;BME280;8112;53.592;10.184;2024-03-07T20:59:40;102201.69;;;2.74;100.00
16016;BME280;8112;53.592;10.184;2024-03-07T21:04:41;102197.38;;;2.69;100.00
16016;BME280;8112;53.592;10.184;2024-03-07T21:09:45;102197.38;;;2.65;100.00
16016;BME280;8112;53.592;10.184;2024-03-07T21:14:46;102194.78;;;2.65;100.00
16016;BME280;8112;53.592;10.184;2024-03-07T21:19:49;102206.09;;;2.59;100.00
16016;BME280;8112;53.592;10.184;2024-03-07T21:24:52;102194.81;;;2.57;100.00
16016;BME280;8112;53.592;10.184;2024-03-07T21:29:53;102198.28;;;2.51;100.00
16016;BME280;8112;53.592;10.184;2024-03-07T21:34:55;102189.59;;;2.51;100.00
16016;BME280;8112;53.592;10.184;2024-03-07T21:39:59;102189.63;;;2.45;100.00
16016;BME280;8112;53.592;10.184;2024-03-07T21:45:00;102186.19;;;2.32;100.00
16016;BME280;8112;53.592;10.184;2024-03-07T21:50:02;102174.91;;;2.25;100.00
16016;BME280;8112;53.592;10.184;2024-03-07T21:55:06;102177.50;;;2.33;100.00
16016;BME280;8112;53.592;10.184;2024-03-07T22:00:13;102180.09;;;2.31;100.00
16016;BME280;8112;53.592;10.184;2024-03-07T22:05:18;102178.38;;;2.24;100.00
16016;BME280;8112;53.592;10.184;2024-03-07T22:10:21;102178.38;;;2.19;100.00
16016;BME280;8112;53.592;10.184;2024-03-07T22:15:23;102175.78;;;2.14;100.00
16016;BME280;8112;53.592;10.184;2024-03-07T22:20:25;102180.97;;;2.14;100.00
16016;BME280;8112;53.592;10.184;2024-03-07T22:25:28;102174.06;;;2.18;100.00
16016;BME280;8112;53.592;10.184;2024-03-07T22:30:30;102173.19;;;2.08;100.00
16016;BME280;8112;53.592;10.184;2024-03-07T22:35:32;102163.63;;;2.01;100.00
16016;BME280;8112;53.592;10.184;2024-03-07T22:40:36;102174.94;;;1.98;100.00
16016;BME280;8112;53.592;10.184;2024-03-07T22:45:37;102170.59;;;2.02;100.00
16016;BME280;8112;53.592;10.184;2024-03-07T22:50:39;102163.66;;;1.95;100.00
16016;BME280;8112;53.592;10.184;2024-03-07T22:55:42;102159.31;;;1.95;100.00
16016;BME280;8112;53.592;10.184;2024-03-07T23:00:44;102149.78;;;1.96;100.00
16016;BME280;8112;53.592;10.184;2024-03-07T23:05:47;102154.13;;;1.94;100.00
16016;BME280;8112;53.592;10.184;2024-03-07T23:10:50;102149.78;;;1.90;100.00
16016;BME280;8112;53.592;10.184;2024-03-07T23:15:52;102157.56;;;1.80;100.00
16016;BME280;8112;53.592;10.184;2024-03-07T23:20:53;102142.00;;;1.79;100.00
16016;BME280;8112;53.592;10.184;2024-03-07T23:25:58;102136.78;;;1.68;100.00
16016;BME280;8112;53.592;10.184;2024-03-07T23:30:59;102133.31;;;1.53;100.00
16016;BME280;8112;53.592;10.184;2024-03-07T23:36:01;102135.03;;;1.54;100.00
16016;BME280;8112;53.592;10.184;2024-03-07T23:41:04;102135.88;;;1.46;100.00
16016;BME280;8112;53.592;10.184;2024-03-07T23:46:06;102136.72;;;1.46;100.00
16016;BME280;8112;53.592;10.184;2024-03-07T23:51:08;102128.06;;;1.44;100.00
16016;BME280;8112;53.592;10.184;2024-03-07T23:56:12;102125.47;;;1.38;100.00
